sensor_id;sensor_type;location;lat;lon;timestamp;P1;durP1;ratioP1;P2;durP2;ratioP2
55718;SDS011;41623;46.104;19.656;2023-09-12T08:54:34;9.63;;;3.20;;
55718;SDS011;41623;46.104;19.656;2023-09-12T08:57:04;4.78;;;3.75;;
55718;SDS011;41623;46.104;19.656;2023-09-12T08:59:33;3.38;;;2.35;;
55718;SDS011;41623;46.104;19.656;2023-09-12T09:02:00;7.70;;;2.53;;
55718;SDS011;41623;46.104;19.656;2023-09-12T09:04:29;2.72;;;2.33;;
55718;SDS011;41623;46.104;19.656;2023-09-12T09:06:57;11.00;;;3.20;;
55718;SDS011;41623;46.104;19.656;2023-09-12T09:09:24;4.75;;;3.50;;
55718;SDS011;41623;46.104;19.656;2023-09-12T09:11:50;4.68;;;2.92;;
55718;SDS011;41623;46.104;19.656;2023-09-12T09:14:16;3.10;;;2.33;;
55718;SDS011;41623;46.104;19.656;2023-09-12T09:16:42;4.15;;;2.95;;
55718;SDS011;41623;46.104;19.656;2023-09-12T09:19:08;3.28;;;2.17;;
55718;SDS011;41623;46.104;19.656;2023-09-12T09:21:36;5.03;;;2.30;;
55718;SDS011;41623;46.104;19.656;2023-09-12T09:24:12;11.40;;;2.85;;
55718;SDS011;41623;46.104;19.656;2023-09-12T09:26:49;7.38;;;4.03;;
55718;SDS011;41623;46.104;19.656;2023-09-12T09:29:16;2.55;;;2.35;;
55718;SDS011;41623;46.104;19.656;2023-09-12T09:31:43;4.70;;;2.40;;
55718;SDS011;41623;46.104;19.656;2023-09-12T09:34:13;3.10;;;2.60;;
55718;SDS011;41623;46.104;19.656;2023-09-12T09:36:40;3.60;;;2.85;;
55718;SDS011;41623;46.104;19.656;2023-09-12T09:39:08;4.80;;;2.17;;
55718;SDS011;41623;46.104;19.656;2023-09-12T09:41:34;4.25;;;2.88;;
55718;SDS011;41623;46.104;19.656;2023-09-12T09:44:01;2.72;;;2.20;;
55718;SDS011;41623;46.104;19.656;2023-09-12T09:46:29;3.47;;;2.80;;
55718;SDS011;41623;46.104;19.656;2023-09-12T09:48:55;6.35;;;2.67;;
55718;SDS011;41623;46.104;19.656;2023-09-12T09:51:21;2.53;;;2.33;;
55718;SDS011;41623;46.104;19.656;2023-09-12T09:53:51;3.15;;;2.70;;
55718;SDS011;41623;46.104;19.656;2023-09-12T09:56:17;2.38;;;2.17;;
55718;SDS011;41623;46.104;19.656;2023-09-12T10:01:14;3.15;;;2.28;;
55718;SDS011;41623;46.104;19.656;2023-09-12T10:03:44;2.70;;;2.38;;
55718;SDS011;41623;46.104;19.656;2023-09-12T10:06:12;2.72;;;2.20;;
55718;SDS011;41623;46.104;19.656;2023-09-12T10:08:39;27.35;;;3.67;;
55718;SDS011;41623;46.104;19.656;2023-09-12T10:11:06;4.15;;;3.00;;
55718;SDS011;41623;46.104;19.656;2023-09-12T10:13:33;4.90;;;3.15;;
55718;SDS011;41623;46.104;19.656;2023-09-12T10:16:01;12.32;;;3.28;;
55718;SDS011;41623;46.104;19.656;2023-09-12T10:18:29;6.10;;;3.72;;
55718;SDS011;41623;46.104;19.656;2023-09-12T10:21:08;4.20;;;3.28;;
55718;SDS011;41623;46.104;19.656;2023-09-12T10:23:41;3.20;;;2.70;;
55718;SDS011;41623;46.104;19.656;2023-09-12T10:26:10;3.42;;;2.28;;
55718;SDS011;41623;46.104;19.656;2023-09-12T10:28:38;6.00;;;3.13;;
55718;SDS011;41623;46.104;19.656;2023-09-12T10:31:04;45.83;;;4.32;;
55718;SDS011;41623;46.104;19.656;2023-09-12T10:33:30;4.00;;;3.03;;
55718;SDS011;41623;46.104;19.656;2023-09-12T10:35:57;17.38;;;3.25;;
55718;SDS011;41623;46.104;19.656;2023-09-12T10:38:23;7.13;;;3.55;;
55718;SDS011;41623;46.104;19.656;2023-09-12T10:40:51;11.70;;;3.03;;
55718;SDS011;41623;46.104;19.656;2023-09-12T10:43:19;2.92;;;2.58;;
55718;SDS011;41623;46.104;19.656;2023-09-12T10:45:46;3.65;;;2.28;;
55718;SDS011;41623;46.104;19.656;2023-09-12T10:48:12;5.72;;;2.55;;
55718;SDS011;41623;46.104;19.656;2023-09-12T10:50:38;2.67;;;2.20;;
55718;SDS011;41623;46.104;19.656;2023-09-12T10:53:11;6.95;;;2.60;;
55718;SDS011;41623;46.104;19.656;2023-09-12T10:55:37;4.43;;;3.10;;
55718;SDS011;41623;46.104;19.656;2023-09-12T10:58:10;4.22;;;3.45;;
55718;SDS011;41623;46.104;19.656;2023-09-12T11:00:36;3.60;;;2.83;;
55718;SDS011;41623;46.104;19.656;2023-09-12T11:04:04;7.65;;;2.78;;
55718;SDS011;41623;46.104;19.656;2023-09-12T11:05:59;6.35;;;2.72;;
55718;SDS011;41623;46.104;19.656;2023-09-12T11:08:26;2.88;;;2.60;;
55718;SDS011;41623;46.104;19.656;2023-09-12T11:13:38;3.13;;;2.78;;
55718;SDS011;41623;46.104;19.656;2023-09-12T11:16:11;2.47;;;2.20;;
55718;SDS011;41623;46.104;19.656;2023-09-12T11:19:11;3.33;;;2.25;;
55718;SDS011;41623;46.104;19.656;2023-09-12T11:21:32;5.78;;;3.40;;
55718;SDS011;41623;46.104;19.656;2023-09-12T11:23:58;6.07;;;2.90;;
55718;SDS011;41623;46.104;19.656;2023-09-12T11:26:24;2.65;;;2.38;;
55718;SDS011;41623;46.104;19.656;2023-09-12T11:28:51;8.73;;;2.92;;
55718;SDS011;41623;46.104;19.656;2023-09-12T11:31:26;6.68;;;3.08;;
55718;SDS011;41623;46.104;19.656;2023-09-12T11:33:53;3.13;;;2.83;;
55718;SDS011;41623;46.104;19.656;2023-09-12T11:36:19;3.83;;;2.92;;
55718;SDS011;41623;46.104;19.656;2023-09-12T11:38:49;2.45;;;2.25;;
55718;SDS011;41623;46.104;19.656;2023-09-12T11:41:38;3.72;;;2.33;;
55718;SDS011;41623;46.104;19.656;2023-09-12T11:44:02;1.85;;;1.75;;
55718;SDS011;41623;46.104;19.656;2023-09-12T11:46:29;9.82;;;2.83;;
55718;SDS011;41623;46.104;19.656;2023-09-12T11:48:56;3.17;;;2.60;;
55718;SDS011;41623;46.104;19.656;2023-09-12T11:51:23;4.10;;;2.50;;
55718;SDS011;41623;46.104;19.656;2023-09-12T11:53:51;4.03;;;2.47;;
55718;SDS011;41623;46.104;19.656;2023-09-12T11:56:18;11.07;;;2.80;;
55718;SDS011;41623;46.104;19.656;2023-09-12T11:58:46;4.03;;;2.65;;
55718;SDS011;41623;46.104;19.656;2023-09-12T12:01:12;4.15;;;2.38;;
55718;SDS011;41623;46.104;19.656;2023-09-12T12:03:39;1.77;;;1.67;;
55718;SDS011;41623;46.104;19.656;2023-09-12T12:06:05;4.15;;;2.83;;
55718;SDS011;41623;46.104;19.656;2023-09-12T12:08:31;4.85;;;1.83;;
55718;SDS011;41623;46.104;19.656;2023-09-12T12:10:57;7.70;;;2.88;;
55718;SDS011;41623;46.104;19.656;2023-09-12T12:13:24;6.03;;;2.20;;
55718;SDS011;41623;46.104;19.656;2023-09-12T12:15:50;2.70;;;2.25;;
55718;SDS011;41623;46.104;19.656;2023-09-12T12:18:16;2.45;;;1.98;;
55718;SDS011;41623;46.104;19.656;2023-09-12T12:20:42;3.47;;;2.28;;
55718;SDS011;41623;46.104;19.656;2023-09-12T12:23:08;2.97;;;1.95;;
55718;SDS011;41623;46.104;19.656;2023-09-12T12:25:35;2.50;;;1.88;;
55718;SDS011;41623;46.104;19.656;2023-09-12T12:28:01;2.90;;;2.60;;
55718;SDS011;41623;46.104;19.656;2023-09-12T12:30:31;3.47;;;2.40;;
55718;SDS011;41623;46.104;19.656;2023-09-12T12:32:59;2.65;;;2.15;;
55718;SDS011;41623;46.104;19.656;2023-09-12T12:35:26;3.50;;;2.25;;
55718;SDS011;41623;46.104;19.656;2023-09-12T12:37:54;2.40;;;2.20;;
55718;SDS011;41623;46.104;19.656;2023-09-12T12:40:23;2.35;;;2.15;;
55718;SDS011;41623;46.104;19.656;2023-09-12T12:42:50;2.42;;;2.22;;
55718;SDS011;41623;46.104;19.656;2023-09-12T12:45:17;3.15;;;2.25;;
55718;SDS011;41623;46.104;19.656;2023-09-12T12:47:43;1.83;;;1.73;;
55718;SDS011;41623;46.104;19.656;2023-09-12T12:50:10;3.05;;;2.40;;
55718;SDS011;41623;46.104;19.656;2023-09-12T12:52:37;3.00;;;2.50;;
55718;SDS011;41623;46.104;19.656;2023-09-12T12:55:12;4.50;;;2.55;;
55718;SDS011;41623;46.104;19.656;2023-09-12T12:57:39;2.55;;;2.33;;
55718;SDS011;41623;46.104;19.656;2023-09-12T13:02:35;16.58;;;2.17;;
55718;SDS011;41623;46.104;19.656;2023-09-12T13:05:01;5.13;;;2.38;;
55718;SDS011;41623;46.104;19.656;2023-09-12T13:07:27;4.65;;;2.22;;
55718;SDS011;41623;46.104;19.656;2023-09-12T13:09:53;2.30;;;2.10;;
55718;SDS011;41623;46.104;19.656;2023-09-12T13:12:19;2.17;;;1.75;;
55718;SDS011;41623;46.104;19.656;2023-09-12T13:14:45;5.10;;;1.90;;
55718;SDS011;41623;46.104;19.656;2023-09-12T13:17:12;5.72;;;2.17;;
55718;SDS011;41623;46.104;19.656;2023-09-12T13:19:38;6.63;;;2.40;;
55718;SDS011;41623;46.104;19.656;2023-09-12T13:22:04;5.25;;;2.08;;
55718;SDS011;41623;46.104;19.656;2023-09-12T13:24:30;16.17;;;2.50;;
55718;SDS011;41623;46.104;19.656;2023-09-12T13:26:56;2.97;;;2.00;;
55718;SDS011;41623;46.104;19.656;2023-09-12T13:29:22;3.90;;;2.63;;
55718;SDS011;41623;46.104;19.656;2023-09-12T13:31:48;5.18;;;1.92;;
55718;SDS011;41623;46.104;19.656;2023-09-12T13:34:14;3.67;;;2.20;;
55718;SDS011;41623;46.104;19.656;2023-09-12T13:36:40;3.00;;;2.42;;
55718;SDS011;41623;46.104;19.656;2023-09-12T13:39:06;2.10;;;1.90;;
55718;SDS011;41623;46.104;19.656;2023-09-12T13:41:33;2.88;;;2.28;;
55718;SDS011;41623;46.104;19.656;2023-09-12T13:43:59;2.20;;;2.00;;
55718;SDS011;41623;46.104;19.656;2023-09-12T13:46:25;2.67;;;2.15;;
55718;SDS011;41623;46.104;19.656;2023-09-12T13:48:51;3.22;;;1.92;;
55718;SDS011;41623;46.104;19.656;2023-09-12T13:51:17;2.42;;;2.03;;
55718;SDS011;41623;46.104;19.656;2023-09-12T13:53:43;8.85;;;2.85;;
55718;SDS011;41623;46.104;19.656;2023-09-12T13:56:09;3.50;;;2.55;;
55718;SDS011;41623;46.104;19.656;2023-09-12T13:58:35;6.20;;;2.03;;
55718;SDS011;41623;46.104;19.656;2023-09-12T14:01:01;13.00;;;2.75;;
55718;SDS011;41623;46.104;19.656;2023-09-12T14:03:28;6.40;;;2.25;;
55718;SDS011;41623;46.104;19.656;2023-09-12T14:05:54;5.93;;;2.55;;
55718;SDS011;41623;46.104;19.656;2023-09-12T14:08:20;3.25;;;1.98;;
55718;SDS011;41623;46.104;19.656;2023-09-12T14:10:46;5.78;;;2.38;;
55718;SDS011;41623;46.104;19.656;2023-09-12T14:13:12;3.22;;;2.25;;
55718;SDS011;41623;46.104;19.656;2023-09-12T14:15:39;3.28;;;2.45;;
55718;SDS011;41623;46.104;19.656;2023-09-12T14:18:05;3.22;;;2.03;;
55718;SDS011;41623;46.104;19.656;2023-09-12T14:20:31;3.00;;;2.00;;
55718;SDS011;41623;46.104;19.656;2023-09-12T14:22:57;3.50;;;2.58;;
55718;SDS011;41623;46.104;19.656;2023-09-12T14:25:23;5.03;;;2.10;;
55718;SDS011;41623;46.104;19.656;2023-09-12T14:27:49;3.35;;;2.00;;
55718;SDS011;41623;46.104;19.656;2023-09-12T14:30:15;1.92;;;1.83;;
55718;SDS011;41623;46.104;19.656;2023-09-12T14:32:41;8.90;;;2.83;;
55718;SDS011;41623;46.104;19.656;2023-09-12T14:35:07;3.90;;;2.45;;
55718;SDS011;41623;46.104;19.656;2023-09-12T14:37:33;3.17;;;2.42;;
55718;SDS011;41623;46.104;19.656;2023-09-12T14:40:02;2.42;;;2.22;;
55718;SDS011;41623;46.104;19.656;2023-09-12T14:42:29;6.45;;;3.08;;
55718;SDS011;41623;46.104;19.656;2023-09-12T14:44:56;3.50;;;2.85;;
55718;SDS011;41623;46.104;19.656;2023-09-12T14:47:22;3.17;;;2.88;;
55718;SDS011;41623;46.104;19.656;2023-09-12T14:49:49;2.20;;;2.00;;
55718;SDS011;41623;46.104;19.656;2023-09-12T14:52:15;2.42;;;1.90;;
55718;SDS011;41623;46.104;19.656;2023-09-12T14:54:41;3.55;;;2.55;;
55718;SDS011;41623;46.104;19.656;2023-09-12T14:57:07;2.78;;;2.15;;
55718;SDS011;41623;46.104;19.656;2023-09-12T14:59:33;2.13;;;1.85;;
55718;SDS011;41623;46.104;19.656;2023-09-12T15:01:59;11.27;;;2.88;;
55718;SDS011;41623;46.104;19.656;2023-09-12T15:04:25;3.95;;;2.15;;
55718;SDS011;41623;46.104;19.656;2023-09-12T15:06:51;2.33;;;2.13;;
55718;SDS011;41623;46.104;19.656;2023-09-12T15:09:19;6.65;;;2.85;;
55718;SDS011;41623;46.104;19.656;2023-09-12T15:11:45;4.07;;;2.20;;
55718;SDS011;41623;46.104;19.656;2023-09-12T15:14:11;2.60;;;2.40;;
55718;SDS011;41623;46.104;19.656;2023-09-12T15:16:37;2.20;;;2.00;;
55718;SDS011;41623;46.104;19.656;2023-09-12T15:19:03;2.80;;;1.67;;
55718;SDS011;41623;46.104;19.656;2023-09-12T15:21:29;3.15;;;2.47;;
55718;SDS011;41623;46.104;19.656;2023-09-12T15:23:55;3.00;;;2.70;;
55718;SDS011;41623;46.104;19.656;2023-09-12T15:26:21;5.88;;;2.90;;
55718;SDS011;41623;46.104;19.656;2023-09-12T15:28:47;5.55;;;3.50;;
55718;SDS011;41623;46.104;19.656;2023-09-12T15:31:13;4.60;;;2.65;;
55718;SDS011;41623;46.104;19.656;2023-09-12T15:33:39;6.53;;;2.75;;
55718;SDS011;41623;46.104;19.656;2023-09-12T15:36:06;2.90;;;2.60;;
55718;SDS011;41623;46.104;19.656;2023-09-12T15:38:32;2.33;;;2.13;;
55718;SDS011;41623;46.104;19.656;2023-09-12T15:40:58;5.50;;;3.85;;
55718;SDS011;41623;46.104;19.656;2023-09-12T15:43:26;8.05;;;4.22;;
55718;SDS011;41623;46.104;19.656;2023-09-12T15:45:53;13.60;;;3.10;;
55718;SDS011;41623;46.104;19.656;2023-09-12T15:48:19;4.03;;;2.83;;
55718;SDS011;41623;46.104;19.656;2023-09-12T15:50:45;3.13;;;2.83;;
55718;SDS011;41623;46.104;19.656;2023-09-12T15:53:11;6.03;;;3.17;;
55718;SDS011;41623;46.104;19.656;2023-09-12T15:55:37;4.00;;;2.72;;
55718;SDS011;41623;46.104;19.656;2023-09-12T15:58:03;7.22;;;2.95;;
55718;SDS011;41623;46.104;19.656;2023-09-12T16:00:30;3.08;;;2.22;;
55718;SDS011;41623;46.104;19.656;2023-09-12T16:02:56;4.38;;;2.50;;
55718;SDS011;41623;46.104;19.656;2023-09-12T16:05:22;6.45;;;2.30;;
55718;SDS011;41623;46.104;19.656;2023-09-12T16:07:48;5.30;;;2.88;;
55718;SDS011;41623;46.104;19.656;2023-09-12T16:10:14;5.40;;;3.38;;
55718;SDS011;41623;46.104;19.656;2023-09-12T16:12:41;11.60;;;3.15;;
55718;SDS011;41623;46.104;19.656;2023-09-12T16:15:07;12.35;;;3.08;;
55718;SDS011;41623;46.104;19.656;2023-09-12T16:17:34;3.67;;;2.58;;
55718;SDS011;41623;46.104;19.656;2023-09-12T16:20:06;5.43;;;3.70;;
55718;SDS011;41623;46.104;19.656;2023-09-12T16:22:34;4.22;;;3.00;;
55718;SDS011;41623;46.104;19.656;2023-09-12T16:25:01;5.00;;;3.13;;
55718;SDS011;41623;46.104;19.656;2023-09-12T16:27:27;4.25;;;2.75;;
55718;SDS011;41623;46.104;19.656;2023-09-12T16:29:53;4.93;;;3.10;;
55718;SDS011;41623;46.104;19.656;2023-09-12T16:32:19;6.85;;;3.40;;
55718;SDS011;41623;46.104;19.656;2023-09-12T16:34:45;4.40;;;3.38;;
55718;SDS011;41623;46.104;19.656;2023-09-12T16:37:11;3.47;;;2.70;;
55718;SDS011;41623;46.104;19.656;2023-09-12T16:39:37;10.43;;;4.63;;
55718;SDS011;41623;46.104;19.656;2023-09-12T16:42:07;8.20;;;3.47;;
55718;SDS011;41623;46.104;19.656;2023-09-12T16:44:33;5.10;;;3.88;;
55718;SDS011;41623;46.104;19.656;2023-09-12T16:46:59;14.18;;;4.55;;
55718;SDS011;41623;46.104;19.656;2023-09-12T16:49:25;9.27;;;3.05;;
55718;SDS011;41623;46.104;19.656;2023-09-12T16:51:51;4.82;;;3.80;;
55718;SDS011;41623;46.104;19.656;2023-09-12T16:54:17;12.43;;;4.78;;
55718;SDS011;41623;46.104;19.656;2023-09-12T16:56:43;12.55;;;4.40;;
55718;SDS011;41623;46.104;19.656;2023-09-12T16:59:09;13.43;;;3.97;;
55718;SDS011;41623;46.104;19.656;2023-09-12T17:01:35;5.18;;;3.60;;
55718;SDS011;41623;46.104;19.656;2023-09-12T17:04:02;5.80;;;3.45;;
55718;SDS011;41623;46.104;19.656;2023-09-12T17:06:29;11.85;;;3.88;;
55718;SDS011;41623;46.104;19.656;2023-09-12T17:08:55;19.77;;;3.72;;
55718;SDS011;41623;46.104;19.656;2023-09-12T17:11:28;5.03;;;3.53;;
55718;SDS011;41623;46.104;19.656;2023-09-12T17:13:54;13.23;;;3.78;;
55718;SDS011;41623;46.104;19.656;2023-09-12T17:16:20;9.90;;;3.75;;
55718;SDS011;41623;46.104;19.656;2023-09-12T17:18:46;17.58;;;3.70;;
55718;SDS011;41623;46.104;19.656;2023-09-12T17:21:12;7.22;;;4.30;;
55718;SDS011;41623;46.104;19.656;2023-09-12T17:23:38;8.55;;;3.88;;
55718;SDS011;41623;46.104;19.656;2023-09-12T17:26:04;7.60;;;3.72;;
55718;SDS011;41623;46.104;19.656;2023-09-12T17:28:30;5.95;;;4.07;;
55718;SDS011;41623;46.104;19.656;2023-09-12T17:30:56;6.38;;;3.88;;
55718;SDS011;41623;46.104;19.656;2023-09-12T17:33:22;5.95;;;3.55;;
55718;SDS011;41623;46.104;19.656;2023-09-12T17:35:48;8.15;;;4.47;;
55718;SDS011;41623;46.104;19.656;2023-09-12T17:38:14;6.03;;;3.78;;
55718;SDS011;41623;46.104;19.656;2023-09-12T17:40:40;20.38;;;4.65;;
55718;SDS011;41623;46.104;19.656;2023-09-12T17:43:06;31.42;;;4.57;;
55718;SDS011;41623;46.104;19.656;2023-09-12T17:45:32;18.15;;;4.38;;
55718;SDS011;41623;46.104;19.656;2023-09-12T17:48:00;11.75;;;4.90;;
55718;SDS011;41623;46.104;19.656;2023-09-12T17:50:26;8.88;;;4.63;;
55718;SDS011;41623;46.104;19.656;2023-09-12T17:52:54;7.50;;;4.72;;
55718;SDS011;41623;46.104;19.656;2023-09-12T17:55:22;8.35;;;4.38;;
55718;SDS011;41623;46.104;19.656;2023-09-12T17:57:48;6.90;;;3.80;;
55718;SDS011;41623;46.104;19.656;2023-09-12T18:00:15;17.98;;;4.93;;
55718;SDS011;41623;46.104;19.656;2023-09-12T18:02:41;10.82;;;4.15;;
55718;SDS011;41623;46.104;19.656;2023-09-12T18:05:07;7.60;;;4.20;;
55718;SDS011;41623;46.104;19.656;2023-09-12T18:07:35;5.30;;;3.78;;
55718;SDS011;41623;46.104;19.656;2023-09-12T18:10:02;7.72;;;4.28;;
55718;SDS011;41623;46.104;19.656;2023-09-12T18:12:28;9.43;;;3.80;;
55718;SDS011;41623;46.104;19.656;2023-09-12T18:14:55;11.50;;;4.30;;
55718;SDS011;41623;46.104;19.656;2023-09-12T18:17:21;12.68;;;3.97;;
55718;SDS011;41623;46.104;19.656;2023-09-12T18:19:47;9.05;;;3.65;;
55718;SDS011;41623;46.104;19.656;2023-09-12T18:22:13;8.23;;;4.15;;
55718;SDS011;41623;46.104;19.656;2023-09-12T18:24:39;7.25;;;4.05;;
55718;SDS011;41623;46.104;19.656;2023-09-12T18:27:05;9.13;;;5.47;;
55718;SDS011;41623;46.104;19.656;2023-09-12T18:29:31;12.85;;;4.68;;
55718;SDS011;41623;46.104;19.656;2023-09-12T18:31:57;11.55;;;4.90;;
55718;SDS011;41623;46.104;19.656;2023-09-12T18:34:23;20.08;;;5.20;;
55718;SDS011;41623;46.104;19.656;2023-09-12T18:36:51;13.05;;;5.35;;
55718;SDS011;41623;46.104;19.656;2023-09-12T18:39:18;9.85;;;5.28;;
55718;SDS011;41623;46.104;19.656;2023-09-12T18:41:45;9.90;;;5.20;;
55718;SDS011;41623;46.104;19.656;2023-09-12T18:44:11;9.07;;;5.57;;
55718;SDS011;41623;46.104;19.656;2023-09-12T18:46:37;11.45;;;5.60;;
55718;SDS011;41623;46.104;19.656;2023-09-12T18:49:03;19.83;;;5.38;;
55718;SDS011;41623;46.104;19.656;2023-09-12T18:51:29;9.75;;;5.63;;
55718;SDS011;41623;46.104;19.656;2023-09-12T18:53:56;10.32;;;5.22;;
55718;SDS011;41623;46.104;19.656;2023-09-12T18:56:22;8.57;;;5.45;;
55718;SDS011;41623;46.104;19.656;2023-09-12T18:58:48;8.07;;;5.32;;
55718;SDS011;41623;46.104;19.656;2023-09-12T19:01:14;20.98;;;5.47;;
55718;SDS011;41623;46.104;19.656;2023-09-12T19:03:40;14.30;;;5.43;;
55718;SDS011;41623;46.104;19.656;2023-09-12T19:06:07;11.45;;;5.32;;
55718;SDS011;41623;46.104;19.656;2023-09-12T19:08:34;12.35;;;5.32;;
55718;SDS011;41623;46.104;19.656;2023-09-12T19:11:05;14.00;;;5.07;;
55718;SDS011;41623;46.104;19.656;2023-09-12T19:13:31;9.60;;;5.22;;
55718;SDS011;41623;46.104;19.656;2023-09-12T19:15:57;12.30;;;5.80;;
55718;SDS011;41623;46.104;19.656;2023-09-12T19:18:23;15.18;;;5.68;;
55718;SDS011;41623;46.104;19.656;2023-09-12T19:20:50;10.77;;;5.00;;
55718;SDS011;41623;46.104;19.656;2023-09-12T19:23:16;10.52;;;4.20;;
55718;SDS011;41623;46.104;19.656;2023-09-12T19:25:42;15.88;;;5.63;;
55718;SDS011;41623;46.104;19.656;2023-09-12T19:28:13;9.82;;;4.93;;
55718;SDS011;41623;46.104;19.656;2023-09-12T19:30:39;23.42;;;5.07;;
55718;SDS011;41623;46.104;19.656;2023-09-12T19:33:05;8.95;;;4.47;;
55718;SDS011;41623;46.104;19.656;2023-09-12T19:35:34;15.15;;;6.03;;
55718;SDS011;41623;46.104;19.656;2023-09-12T19:38:00;16.08;;;5.78;;
55718;SDS011;41623;46.104;19.656;2023-09-12T19:40:27;14.18;;;4.93;;
55718;SDS011;41623;46.104;19.656;2023-09-12T19:42:53;14.73;;;5.78;;
55718;SDS011;41623;46.104;19.656;2023-09-12T19:45:19;11.65;;;4.65;;
55718;SDS011;41623;46.104;19.656;2023-09-12T19:47:45;7.47;;;5.13;;
55718;SDS011;41623;46.104;19.656;2023-09-12T19:50:11;10.63;;;4.53;;
55718;SDS011;41623;46.104;19.656;2023-09-12T19:52:37;8.75;;;4.13;;
55718;SDS011;41623;46.104;19.656;2023-09-12T19:55:04;12.73;;;3.30;;
55718;SDS011;41623;46.104;19.656;2023-09-12T19:57:30;5.88;;;4.00;;
55718;SDS011;41623;46.104;19.656;2023-09-12T19:59:56;8.30;;;3.97;;
55718;SDS011;41623;46.104;19.656;2023-09-12T20:02:22;7.15;;;4.63;;
55718;SDS011;41623;46.104;19.656;2023-09-12T20:04:48;11.88;;;3.85;;
55718;SDS011;41623;46.104;19.656;2023-09-12T20:07:15;11.18;;;3.72;;
55718;SDS011;41623;46.104;19.656;2023-09-12T20:09:41;8.80;;;3.58;;
55718;SDS011;41623;46.104;19.656;2023-09-12T20:12:07;5.43;;;3.45;;
55718;SDS011;41623;46.104;19.656;2023-09-12T20:14:34;7.97;;;3.67;;
55718;SDS011;41623;46.104;19.656;2023-09-12T20:17:00;4.20;;;2.60;;
55718;SDS011;41623;46.104;19.656;2023-09-12T20:19:26;12.55;;;3.50;;
55718;SDS011;41623;46.104;19.656;2023-09-12T20:21:52;5.18;;;4.43;;
55718;SDS011;41623;46.104;19.656;2023-09-12T20:24:18;9.70;;;4.35;;
55718;SDS011;41623;46.104;19.656;2023-09-12T20:26:44;13.20;;;4.25;;
55718;SDS011;41623;46.104;19.656;2023-09-12T20:29:12;14.10;;;3.50;;
55718;SDS011;41623;46.104;19.656;2023-09-12T20:31:39;5.60;;;3.42;;
55718;SDS011;41623;46.104;19.656;2023-09-12T20:34:05;5.30;;;3.38;;
55718;SDS011;41623;46.104;19.656;2023-09-12T20:36:32;11.77;;;4.45;;
55718;SDS011;41623;46.104;19.656;2023-09-12T20:41:43;18.98;;;4.05;;
55718;SDS011;41623;46.104;19.656;2023-09-12T20:44:09;15.50;;;3.97;;
55718;SDS011;41623;46.104;19.656;2023-09-12T20:46:35;6.15;;;3.67;;
55718;SDS011;41623;46.104;19.656;2023-09-12T20:49:01;5.68;;;3.50;;
55718;SDS011;41623;46.104;19.656;2023-09-12T20:51:28;6.45;;;3.92;;
55718;SDS011;41623;46.104;19.656;2023-09-12T20:53:55;7.47;;;3.67;;
55718;SDS011;41623;46.104;19.656;2023-09-12T20:56:23;7.10;;;3.42;;
55718;SDS011;41623;46.104;19.656;2023-09-12T20:58:49;5.22;;;3.25;;
55718;SDS011;41623;46.104;19.656;2023-09-12T21:01:15;10.73;;;3.17;;
55718;SDS011;41623;46.104;19.656;2023-09-12T21:03:41;6.38;;;4.05;;
55718;SDS011;41623;46.104;19.656;2023-09-12T21:06:07;6.13;;;3.40;;
55718;SDS011;41623;46.104;19.656;2023-09-12T21:08:33;4.03;;;2.80;;
55718;SDS011;41623;46.104;19.656;2023-09-12T21:11:00;15.15;;;3.95;;
55718;SDS011;41623;46.104;19.656;2023-09-12T21:13:26;14.07;;;4.00;;
55718;SDS011;41623;46.104;19.656;2023-09-12T21:15:52;22.35;;;3.63;;
55718;SDS011;41623;46.104;19.656;2023-09-12T21:18:18;5.35;;;3.40;;
55718;SDS011;41623;46.104;19.656;2023-09-12T21:20:44;5.50;;;2.90;;
55718;SDS011;41623;46.104;19.656;2023-09-12T21:23:13;8.23;;;3.60;;
55718;SDS011;41623;46.104;19.656;2023-09-12T21:25:40;14.38;;;3.42;;
55718;SDS011;41623;46.104;19.656;2023-09-12T21:28:06;7.60;;;3.80;;
55718;SDS011;41623;46.104;19.656;2023-09-12T21:30:32;7.40;;;3.58;;
55718;SDS011;41623;46.104;19.656;2023-09-12T21:32:58;9.85;;;4.20;;
55718;SDS011;41623;46.104;19.656;2023-09-12T21:35:25;4.07;;;3.28;;
55718;SDS011;41623;46.104;19.656;2023-09-12T21:37:51;11.25;;;3.28;;
55718;SDS011;41623;46.104;19.656;2023-09-12T21:40:17;9.02;;;3.30;;
55718;SDS011;41623;46.104;19.656;2023-09-12T21:42:43;9.75;;;3.67;;
55718;SDS011;41623;46.104;19.656;2023-09-12T21:45:10;6.32;;;3.45;;
55718;SDS011;41623;46.104;19.656;2023-09-12T21:47:40;10.50;;;3.90;;
55718;SDS011;41623;46.104;19.656;2023-09-12T21:50:06;6.78;;;3.50;;
55718;SDS011;41623;46.104;19.656;2023-09-12T21:52:32;12.00;;;4.20;;
55718;SDS011;41623;46.104;19.656;2023-09-12T21:54:58;11.95;;;3.00;;
55718;SDS011;41623;46.104;19.656;2023-09-12T21:57:24;4.88;;;3.05;;
55718;SDS011;41623;46.104;19.656;2023-09-12T21:59:51;7.57;;;3.28;;
55718;SDS011;41623;46.104;19.656;2023-09-12T22:02:17;6.45;;;2.95;;
55718;SDS011;41623;46.104;19.656;2023-09-12T22:04:43;5.05;;;3.10;;
55718;SDS011;41623;46.104;19.656;2023-09-12T22:07:09;6.60;;;3.63;;
55718;SDS011;41623;46.104;19.656;2023-09-12T22:09:35;5.35;;;4.05;;
55718;SDS011;41623;46.104;19.656;2023-09-12T22:12:02;3.92;;;3.17;;
55718;SDS011;41623;46.104;19.656;2023-09-12T22:14:28;4.80;;;3.03;;
55718;SDS011;41623;46.104;19.656;2023-09-12T22:16:55;10.23;;;3.50;;
55718;SDS011;41623;46.104;19.656;2023-09-12T22:19:22;12.18;;;2.85;;
55718;SDS011;41623;46.104;19.656;2023-09-12T22:21:48;7.32;;;3.00;;
55718;SDS011;41623;46.104;19.656;2023-09-12T22:24:14;11.45;;;3.53;;
55718;SDS011;41623;46.104;19.656;2023-09-12T22:26:40;4.63;;;3.08;;
55718;SDS011;41623;46.104;19.656;2023-09-12T22:29:07;10.07;;;2.80;;
55718;SDS011;41623;46.104;19.656;2023-09-12T22:31:33;8.38;;;2.90;;
55718;SDS011;41623;46.104;19.656;2023-09-12T22:33:59;4.18;;;2.28;;
55718;SDS011;41623;46.104;19.656;2023-09-12T22:36:25;3.70;;;2.95;;
55718;SDS011;41623;46.104;19.656;2023-09-12T22:38:52;3.72;;;2.85;;
55718;SDS011;41623;46.104;19.656;2023-09-12T22:41:18;5.80;;;2.63;;
55718;SDS011;41623;46.104;19.656;2023-09-12T22:43:49;7.38;;;3.47;;
55718;SDS011;41623;46.104;19.656;2023-09-12T22:46:15;10.98;;;3.75;;
55718;SDS011;41623;46.104;19.656;2023-09-12T22:48:41;8.48;;;2.83;;
55718;SDS011;41623;46.104;19.656;2023-09-12T22:51:07;8.20;;;3.10;;
55718;SDS011;41623;46.104;19.656;2023-09-12T22:53:35;5.85;;;3.17;;
55718;SDS011;41623;46.104;19.656;2023-09-12T22:56:01;6.57;;;3.00;;
55718;SDS011;41623;46.104;19.656;2023-09-12T22:58:27;8.25;;;3.40;;
55718;SDS011;41623;46.104;19.656;2023-09-12T23:00:54;11.27;;;2.90;;
55718;SDS011;41623;46.104;19.656;2023-09-12T23:03:20;2.72;;;2.38;;
55718;SDS011;41623;46.104;19.656;2023-09-12T23:05:46;9.07;;;3.35;;
55718;SDS011;41623;46.104;19.656;2023-09-12T23:08:12;8.57;;;3.22;;
55718;SDS011;41623;46.104;19.656;2023-09-12T23:10:38;4.22;;;2.88;;
55718;SDS011;41623;46.104;19.656;2023-09-12T23:13:04;6.63;;;2.85;;
55718;SDS011;41623;46.104;19.656;2023-09-12T23:15:30;8.15;;;2.75;;
55718;SDS011;41623;46.104;19.656;2023-09-12T23:17:56;5.88;;;3.63;;
55718;SDS011;41623;46.104;19.656;2023-09-12T23:20:22;4.43;;;2.97;;
55718;SDS011;41623;46.104;19.656;2023-09-12T23:22:52;8.90;;;3.00;;
55718;SDS011;41623;46.104;19.656;2023-09-12T23:25:18;7.40;;;2.22;;
55718;SDS011;41623;46.104;19.656;2023-09-12T23:27:44;4.60;;;2.70;;
55718;SDS011;41623;46.104;19.656;2023-09-12T23:30:11;3.58;;;2.88;;
55718;SDS011;41623;46.104;19.656;2023-09-12T23:32:38;3.13;;;2.15;;